createdAt,value
2022-07-31T00:00:23.436Z,1.23
2022-07-31T00:02:51.017Z,1.38
2022-07-31T00:05:17.938Z,2.90
2022-07-31T00:07:44.719Z,1.42
2022-07-31T00:10:11.540Z,1.05
2022-07-31T00:12:38.271Z,1.33
2022-07-31T00:15:10.376Z,1.60
2022-07-31T00:17:43.248Z,1.75
2022-07-31T00:20:16.006Z,1.27
2022-07-31T00:22:45.663Z,1.50
2022-07-31T00:25:15.455Z,1.55
2022-07-31T00:27:43.766Z,1.27
2022-07-31T00:30:20.531Z,1.60
2022-07-31T00:32:48.841Z,1.20
2022-07-31T00:35:18.904Z,1.20
2022-07-31T00:37:46.019Z,1.25
2022-07-31T00:40:17.425Z,1.23
2022-07-31T00:42:44.625Z,1.30
2022-07-31T00:45:13.418Z,1.02
2022-07-31T00:47:40.947Z,1.60
2022-07-31T00:50:10.692Z,1.50
2022-07-31T00:52:37.878Z,1.20
2022-07-31T00:55:05.904Z,1.40
2022-07-31T00:57:32.604Z,1.40
2022-07-31T01:00:01.600Z,1.20
2022-07-31T01:02:29.432Z,1.20
2022-07-31T01:04:56.204Z,1.33
2022-07-31T01:07:22.959Z,1.20
2022-07-31T01:09:53.947Z,1.30
2022-07-31T01:12:38.337Z,1.13
2022-07-31T01:15:10.133Z,1.50
2022-07-31T01:17:39.912Z,1.67
2022-07-31T01:20:09.101Z,1.58
2022-07-31T01:23:14.631Z,1.48
2022-07-31T01:26:29.093Z,1.48
2022-07-31T01:29:25.931Z,2.53
2022-07-31T01:32:27.494Z,1.40
2022-07-31T01:35:10.570Z,1.25
2022-07-31T01:37:48.348Z,1.70
2022-07-31T01:40:25.212Z,1.52
2022-07-31T01:43:02.006Z,1.30
2022-07-31T01:45:33.331Z,1.20
2022-07-31T01:48:02.940Z,1.33
2022-07-31T01:50:42.292Z,1.65
2022-07-31T01:53:17.587Z,1.20
2022-07-31T01:56:01.954Z,1.35
2022-07-31T01:58:36.852Z,1.40
2022-07-31T02:01:08.689Z,1.58
2022-07-31T02:03:44.066Z,1.40
2022-07-31T02:06:19.077Z,1.40
2022-07-31T02:08:50.609Z,1.58
2022-07-31T02:11:20.318Z,1.60
2022-07-31T02:13:53.433Z,1.30
2022-07-31T02:16:21.557Z,1.42
2022-07-31T02:18:53.883Z,1.40
2022-07-31T02:21:20.781Z,1.58
2022-07-31T02:23:47.540Z,1.42
2022-07-31T02:26:17.928Z,1.38
2022-07-31T02:28:48.097Z,1.40
2022-07-31T02:31:17.094Z,1.38
2022-07-31T02:33:48.158Z,1.42
2022-07-31T02:36:18.523Z,2.03
2022-07-31T02:38:46.122Z,1.55
2022-07-31T02:41:15.519Z,2.38
2022-07-31T02:43:44.768Z,1.40
2022-07-31T02:46:13.844Z,1.42
2022-07-31T02:48:41.652Z,1.90
2022-07-31T02:51:09.221Z,1.50
2022-07-31T02:53:37.964Z,1.63
2022-07-31T02:56:09.273Z,1.60
2022-07-31T02:58:42.680Z,1.38
2022-07-31T03:01:09.630Z,1.98
2022-07-31T03:03:36.626Z,1.50
2022-07-31T03:06:03.900Z,1.55
2022-07-31T03:08:31.182Z,1.90
2022-07-31T03:10:58.048Z,1.70
2022-07-31T03:13:29.466Z,1.60
2022-07-31T03:16:02.733Z,1.80
2022-07-31T03:18:31.141Z,1.90
2022-07-31T03:20:58.368Z,1.83
2022-07-31T03:23:36.139Z,2.05
2022-07-31T03:26:05.059Z,2.70
2022-07-31T03:28:34.873Z,1.70
2022-07-31T03:31:01.952Z,2.20
2022-07-31T03:33:28.961Z,1.83
2022-07-31T03:35:56.143Z,2.22
2022-07-31T03:38:39.050Z,2.00
2022-07-31T03:41:08.125Z,1.98
2022-07-31T03:43:45.556Z,2.03
2022-07-31T03:46:19.734Z,2.40
2022-07-31T03:48:48.066Z,1.95
2022-07-31T03:51:15.932Z,1.98
2022-07-31T03:53:44.480Z,2.25
2022-07-31T03:56:13.320Z,2.28
2022-07-31T03:58:40.403Z,1.80
2022-07-31T04:01:12.230Z,2.10
2022-07-31T04:03:39.720Z,2.10
2022-07-31T04:06:06.927Z,2.33
2022-07-31T04:08:34.369Z,1.85
2022-07-31T04:11:01.128Z,2.35
2022-07-31T04:13:28.358Z,2.05
2022-07-31T04:15:55.073Z,2.25
2022-07-31T04:18:24.296Z,1.88
2022-07-31T04:20:51.052Z,2.00
2022-07-31T04:23:17.793Z,2.45
2022-07-31T04:25:46.496Z,2.28
2022-07-31T04:28:13.303Z,2.50
2022-07-31T04:30:40.236Z,2.00
2022-07-31T04:33:07.052Z,2.63
2022-07-31T04:35:33.921Z,2.33
2022-07-31T04:38:01.110Z,2.33
2022-07-31T04:40:27.888Z,2.60
2022-07-31T04:42:55.304Z,2.55
2022-07-31T04:45:22.081Z,2.22
2022-07-31T04:47:48.845Z,2.63
2022-07-31T04:50:15.743Z,2.25
2022-07-31T04:52:42.571Z,3.08
2022-07-31T04:55:09.864Z,2.50
2022-07-31T04:57:36.652Z,2.35
2022-07-31T05:00:06.802Z,2.75
2022-07-31T05:02:33.592Z,2.42
2022-07-31T05:05:00.415Z,2.63
2022-07-31T05:07:29.741Z,2.28
2022-07-31T05:09:57.245Z,2.47
2022-07-31T05:12:24.170Z,2.58
2022-07-31T05:14:50.979Z,2.75
2022-07-31T05:17:17.722Z,3.20
2022-07-31T05:19:44.641Z,2.60
2022-07-31T05:22:12.332Z,3.05
2022-07-31T05:24:39.101Z,3.03
2022-07-31T05:27:06.962Z,3.25
2022-07-31T05:29:34.239Z,3.08
2022-07-31T05:32:02.977Z,3.70
2022-07-31T05:34:30.646Z,3.10
2022-07-31T05:37:01.199Z,3.15
2022-07-31T05:39:30.286Z,3.78
2022-07-31T05:41:57.687Z,3.63
2022-07-31T05:44:24.718Z,3.83
2022-07-31T05:49:18.408Z,4.05
2022-07-31T05:51:46.602Z,4.13
2022-07-31T05:54:14.075Z,3.88
2022-07-31T05:56:40.835Z,4.57
2022-07-31T05:59:07.642Z,4.68
2022-07-31T06:01:34.497Z,4.28
2022-07-31T06:04:02.501Z,4.20
2022-07-31T06:06:29.320Z,4.00
2022-07-31T06:08:59.435Z,4.65
2022-07-31T06:11:30.447Z,4.57
2022-07-31T06:13:57.159Z,5.40
2022-07-31T06:16:23.899Z,4.47
2022-07-31T06:18:50.870Z,5.90
2022-07-31T06:23:44.497Z,5.43
2022-07-31T06:26:12.382Z,5.10
2022-07-31T06:28:48.825Z,4.70
2022-07-31T06:31:18.519Z,6.53
2022-07-31T06:33:48.054Z,5.65
2022-07-31T06:36:19.420Z,7.13
2022-07-31T06:38:46.727Z,6.05
2022-07-31T06:41:36.848Z,6.40
2022-07-31T06:44:03.772Z,8.15
2022-07-31T06:46:30.541Z,6.93
2022-07-31T06:48:59.722Z,8.13
2022-07-31T06:51:31.408Z,6.95
2022-07-31T06:54:05.335Z,7.68
2022-07-31T06:56:33.536Z,7.43
2022-07-31T06:59:01.566Z,7.80
2022-07-31T07:01:29.716Z,7.72
2022-07-31T07:03:56.946Z,7.35
2022-07-31T07:06:24.072Z,8.02
2022-07-31T07:08:51.865Z,7.45
2022-07-31T07:11:19.941Z,8.25
2022-07-31T07:13:48.028Z,6.85
2022-07-31T07:16:15.559Z,8.07
2022-07-31T07:18:43.083Z,8.45
2022-07-31T07:21:11.394Z,8.43
2022-07-31T07:23:41.239Z,8.93
2022-07-31T07:26:08.280Z,8.48
2022-07-31T07:28:36.714Z,9.63
2022-07-31T07:31:05.043Z,9.10
2022-07-31T07:33:39.818Z,9.23
2022-07-31T07:36:23.776Z,9.63
2022-07-31T07:38:55.716Z,9.85
2022-07-31T07:41:24.959Z,9.43
2022-07-31T07:43:52.530Z,9.95
2022-07-31T07:46:22.769Z,10.18
2022-07-31T07:48:51.031Z,8.63
2022-07-31T07:51:19.554Z,8.80
2022-07-31T07:53:47.068Z,8.40
2022-07-31T07:56:13.940Z,9.68
2022-07-31T07:58:40.911Z,10.85
2022-07-31T08:01:07.790Z,10.70
2022-07-31T08:03:49.919Z,8.52
2022-07-31T08:06:23.334Z,9.32
2022-07-31T08:08:50.535Z,9.93
2022-07-31T08:11:18.090Z,9.25
2022-07-31T08:13:51.009Z,9.95
2022-07-31T08:16:20.143Z,10.52
2022-07-31T08:18:51.466Z,10.52
2022-07-31T08:21:18.620Z,11.25
2022-07-31T08:23:45.425Z,10.05
2022-07-31T08:26:13.858Z,10.35
2022-07-31T08:28:41.427Z,11.27
2022-07-31T08:31:08.376Z,11.05
2022-07-31T08:33:35.121Z,11.13
2022-07-31T08:36:04.723Z,11.60
2022-07-31T08:38:31.459Z,10.32
2022-07-31T08:40:58.260Z,10.80
2022-07-31T08:44:00.705Z,10.10
2022-07-31T08:46:13.145Z,11.30
2022-07-31T08:48:46.089Z,10.23
2022-07-31T08:51:14.009Z,9.75
2022-07-31T08:53:44.653Z,11.05
2022-07-31T08:56:12.692Z,11.20
2022-07-31T08:58:40.148Z,10.77
2022-07-31T09:01:11.135Z,11.27
2022-07-31T09:03:38.737Z,11.93
2022-07-31T09:06:06.702Z,11.02
2022-07-31T09:08:36.285Z,11.85
2022-07-31T09:11:09.742Z,11.98
2022-07-31T09:13:37.558Z,10.68
2022-07-31T09:16:08.887Z,12.75
2022-07-31T09:18:38.138Z,12.20
2022-07-31T09:21:07.280Z,12.82
2022-07-31T09:23:46.572Z,12.73
2022-07-31T09:26:13.497Z,12.60
2022-07-31T09:28:47.349Z,13.18
2022-07-31T09:31:14.797Z,12.18
2022-07-31T09:33:46.368Z,12.23
2022-07-31T09:36:15.033Z,11.32
2022-07-31T09:38:43.787Z,12.27
2022-07-31T09:41:56.770Z,12.50
2022-07-31T09:44:10.306Z,12.48
2022-07-31T09:46:46.058Z,13.65
2022-07-31T09:49:14.766Z,13.52
2022-07-31T09:51:48.200Z,12.88
2022-07-31T09:54:27.805Z,14.57
2022-07-31T09:56:55.037Z,12.88
2022-07-31T09:59:21.900Z,13.98
2022-07-31T10:01:49.423Z,13.02
2022-07-31T10:04:22.657Z,12.30
2022-07-31T10:06:52.116Z,12.80
2022-07-31T10:09:23.153Z,13.40
2022-07-31T10:11:52.270Z,12.60
2022-07-31T10:14:28.684Z,11.40
2022-07-31T10:17:00.776Z,12.52
2022-07-31T10:19:41.604Z,11.60
2022-07-31T10:22:12.444Z,12.77
2022-07-31T10:24:47.850Z,13.18
2022-07-31T10:27:19.248Z,12.18
2022-07-31T10:29:47.273Z,13.95
2022-07-31T10:32:14.250Z,14.77
2022-07-31T10:34:41.829Z,14.40
2022-07-31T10:37:18.692Z,14.48
2022-07-31T10:40:07.008Z,13.43
2022-07-31T10:43:16.933Z,12.27
2022-07-31T10:45:52.799Z,12.02
2022-07-31T10:48:20.580Z,11.40
2022-07-31T10:50:48.617Z,11.75
2022-07-31T10:53:18.312Z,11.73
2022-07-31T10:55:45.307Z,11.55
2022-07-31T10:58:19.759Z,11.95
2022-07-31T11:00:48.028Z,11.68
2022-07-31T11:03:20.602Z,12.23
2022-07-31T11:06:02.263Z,11.90
2022-07-31T11:08:52.235Z,10.95
2022-07-31T11:11:31.767Z,11.68
2022-07-31T11:14:00.179Z,10.00
2022-07-31T11:16:28.884Z,11.73
2022-07-31T11:19:09.495Z,11.55
2022-07-31T11:21:46.870Z,10.38
2022-07-31T11:24:16.446Z,10.65
2022-07-31T11:26:54.536Z,9.88
2022-07-31T11:29:59.396Z,10.40
2022-07-31T11:32:26.917Z,10.88
2022-07-31T11:34:57.070Z,9.90
2022-07-31T11:37:46.538Z,10.95
2022-07-31T11:40:15.525Z,10.80
2022-07-31T11:42:46.014Z,10.30
2022-07-31T11:45:16.753Z,11.13
2022-07-31T11:48:10.868Z,9.95
2022-07-31T11:50:45.630Z,8.98
2022-07-31T11:53:13.155Z,8.70
2022-07-31T11:56:00.792Z,9.00
2022-07-31T11:58:29.560Z,8.20
2022-07-31T12:01:03.445Z,8.45
2022-07-31T12:03:39.590Z,7.72
2022-07-31T12:06:10.146Z,8.68
2022-07-31T12:08:37.599Z,8.63
2022-07-31T12:11:10.793Z,6.95
2022-07-31T12:13:38.548Z,7.63
2022-07-31T12:16:11.370Z,7.38
2022-07-31T12:18:54.184Z,7.82
2022-07-31T12:21:41.052Z,7.35
2022-07-31T12:24:15.307Z,7.65
2022-07-31T12:27:00.123Z,7.28
2022-07-31T12:29:51.745Z,7.80
2022-07-31T12:32:28.503Z,6.70
2022-07-31T12:35:04.452Z,7.38
2022-07-31T12:37:41.791Z,7.75
2022-07-31T12:40:09.022Z,6.85
2022-07-31T12:42:44.734Z,6.85
2022-07-31T12:45:19.591Z,5.65
2022-07-31T12:47:51.696Z,5.72
2022-07-31T12:50:34.271Z,4.68
2022-07-31T12:53:04.585Z,4.63
2022-07-31T12:55:33.521Z,4.25
2022-07-31T12:58:00.696Z,3.83
2022-07-31T13:00:29.176Z,3.90
2022-07-31T13:02:57.994Z,3.97
2022-07-31T13:05:25.705Z,3.80
2022-07-31T13:07:53.153Z,3.88
2022-07-31T13:10:23.689Z,4.20
2022-07-31T13:12:51.412Z,3.42
2022-07-31T13:15:22.514Z,3.70
2022-07-31T13:17:51.606Z,3.08
2022-07-31T13:20:22.956Z,3.22
2022-07-31T13:22:49.705Z,3.13
2022-07-31T13:25:16.665Z,3.05
2022-07-31T13:27:43.734Z,2.95
2022-07-31T13:30:13.856Z,2.80
2022-07-31T13:32:43.138Z,2.58
2022-07-31T13:35:19.503Z,3.10
2022-07-31T13:37:54.384Z,2.90
2022-07-31T13:40:44.323Z,2.83
2022-07-31T13:43:12.228Z,2.42
2022-07-31T13:45:39.209Z,2.72
2022-07-31T13:48:09.654Z,2.78
2022-07-31T13:50:39.910Z,2.70
2022-07-31T13:53:07.092Z,3.00
2022-07-31T13:55:33.979Z,2.53
2022-07-31T13:58:01.486Z,2.88
2022-07-31T14:00:30.199Z,2.55
2022-07-31T14:02:58.439Z,3.08
2022-07-31T14:05:29.386Z,2.53
2022-07-31T14:08:30.605Z,2.70
2022-07-31T14:10:50.282Z,2.20
2022-07-31T14:13:18.680Z,2.50
2022-07-31T14:15:47.257Z,2.33
2022-07-31T14:18:16.416Z,2.40
2022-07-31T14:20:43.210Z,2.60
2022-07-31T14:23:12.504Z,2.47
2022-07-31T14:25:41.564Z,2.65
2022-07-31T14:28:10.572Z,2.08
2022-07-31T14:30:46.025Z,2.40
2022-07-31T14:33:14.252Z,2.22
2022-07-31T14:35:42.645Z,2.00
2022-07-31T14:38:09.639Z,1.85
2022-07-31T14:40:36.826Z,1.90
2022-07-31T14:43:04.061Z,1.98
2022-07-31T14:45:30.920Z,2.15
2022-07-31T14:47:57.822Z,2.05
2022-07-31T14:50:24.942Z,2.03
2022-07-31T14:52:51.793Z,2.65
2022-07-31T14:55:19.550Z,2.08
2022-07-31T14:57:51.664Z,2.35
2022-07-31T15:00:18.512Z,2.50
2022-07-31T15:02:45.671Z,2.47
2022-07-31T15:06:40.761Z,2.22
2022-07-31T15:07:59.906Z,2.70
2022-07-31T15:10:26.854Z,2.38
2022-07-31T15:12:53.637Z,2.58
2022-07-31T15:15:20.533Z,2.85
2022-07-31T15:17:47.629Z,2.65
2022-07-31T15:20:14.433Z,2.40
2022-07-31T15:22:41.208Z,3.30
2022-07-31T15:25:09.761Z,3.25
2022-07-31T15:27:39.065Z,3.70
2022-07-31T15:30:08.027Z,3.50
2022-07-31T15:32:41.579Z,3.55
2022-07-31T15:35:12.559Z,3.95
2022-07-31T15:37:46.369Z,3.63
2022-07-31T15:40:15.148Z,3.50
2022-07-31T15:42:44.247Z,3.38
2022-07-31T15:45:18.512Z,3.95
2022-07-31T15:47:46.485Z,4.15
2022-07-31T15:50:18.742Z,3.88
2022-07-31T15:52:45.921Z,4.78
2022-07-31T15:55:13.120Z,5.07
2022-07-31T15:57:40.138Z,5.55
2022-07-31T16:00:11.030Z,5.80
2022-07-31T16:02:43.186Z,5.35
2022-07-31T16:05:22.173Z,5.28
2022-07-31T16:08:32.331Z,5.57
2022-07-31T16:10:46.958Z,4.93
2022-07-31T16:13:14.990Z,4.78
2022-07-31T16:15:41.762Z,4.80
2022-07-31T16:18:08.513Z,4.63
2022-07-31T16:20:44.785Z,4.47
2022-07-31T16:23:11.630Z,4.38
2022-07-31T16:25:43.950Z,4.07
2022-07-31T16:28:10.756Z,4.10
2022-07-31T16:30:37.521Z,3.55
2022-07-31T16:33:04.316Z,3.67
2022-07-31T16:35:31.048Z,3.70
2022-07-31T16:37:57.813Z,3.38
2022-07-31T16:40:31.820Z,3.80
2022-07-31T16:43:47.902Z,3.97
2022-07-31T16:45:54.748Z,3.75
2022-07-31T16:48:22.054Z,4.18
2022-07-31T16:50:53.260Z,3.55
2022-07-31T16:54:11.674Z,3.28
2022-07-31T16:56:15.007Z,3.35
2022-07-31T16:58:42.168Z,3.13
2022-07-31T17:01:58.120Z,3.42
2022-07-31T17:04:04.200Z,3.10
2022-07-31T17:06:39.032Z,3.35
2022-07-31T17:09:16.451Z,2.85
2022-07-31T17:11:47.752Z,3.15
2022-07-31T17:14:17.284Z,3.33
2022-07-31T17:16:47.955Z,3.35
2022-07-31T17:19:42.389Z,3.40
2022-07-31T17:22:05.873Z,3.75
2022-07-31T17:24:36.928Z,3.30
2022-07-31T17:27:08.294Z,3.58
2022-07-31T17:29:39.577Z,3.70
2022-07-31T17:32:06.695Z,2.78
2022-07-31T17:34:35.450Z,3.17
2022-07-31T17:37:02.576Z,3.10
2022-07-31T17:39:31.161Z,4.35
2022-07-31T17:42:02.205Z,3.30
2022-07-31T17:44:29.593Z,3.55
2022-07-31T17:46:57.761Z,3.58
2022-07-31T17:49:29.402Z,3.95
2022-07-31T17:51:57.788Z,3.55
2022-07-31T17:54:30.483Z,3.50
2022-07-31T17:56:57.842Z,3.63
2022-07-31T17:59:25.538Z,3.45
2022-07-31T18:01:53.759Z,3.10
2022-07-31T18:04:22.588Z,4.00
2022-07-31T18:06:54.227Z,3.25
2022-07-31T18:09:23.329Z,3.42
2022-07-31T18:11:54.873Z,3.63
2022-07-31T18:14:24.464Z,3.75
2022-07-31T18:16:52.484Z,3.33
2022-07-31T18:19:21.373Z,4.57
2022-07-31T18:21:48.570Z,3.20
2022-07-31T18:24:15.398Z,3.53
2022-07-31T18:26:44.352Z,3.53
2022-07-31T18:29:13.923Z,3.58
2022-07-31T18:31:40.637Z,3.15
2022-07-31T18:34:07.523Z,3.55
2022-07-31T18:36:35.512Z,5.57
2022-07-31T18:39:06.131Z,3.83
2022-07-31T18:41:34.164Z,4.03
2022-07-31T18:44:02.008Z,3.83
2022-07-31T18:46:29.216Z,4.93
2022-07-31T18:48:59.349Z,3.70
2022-07-31T18:51:28.337Z,3.75
2022-07-31T18:53:55.626Z,4.38
2022-07-31T18:56:24.767Z,4.15
2022-07-31T18:58:54.267Z,3.58
2022-07-31T19:01:23.366Z,3.90
2022-07-31T19:03:51.523Z,4.45
2022-07-31T19:06:23.941Z,4.13
2022-07-31T19:08:52.008Z,4.47
2022-07-31T19:11:20.271Z,3.35
2022-07-31T19:13:47.624Z,3.78
2022-07-31T19:16:15.712Z,3.60
2022-07-31T19:18:50.157Z,3.67
2022-07-31T19:21:41.363Z,4.13
2022-07-31T19:24:06.882Z,4.05
2022-07-31T19:26:33.781Z,5.55
2022-07-31T19:29:00.520Z,4.32
2022-07-31T19:31:27.561Z,4.63
2022-07-31T19:33:54.331Z,4.15
2022-07-31T19:36:23.584Z,4.13
2022-07-31T19:38:52.773Z,4.85
2022-07-31T19:41:20.822Z,4.30
2022-07-31T19:43:47.569Z,3.78
2022-07-31T19:46:14.363Z,4.40
2022-07-31T19:48:46.168Z,3.92
2022-07-31T19:51:15.740Z,4.30
2022-07-31T19:53:44.399Z,4.63
2022-07-31T19:56:19.661Z,4.38
2022-07-31T19:58:50.350Z,3.70
2022-07-31T20:01:20.033Z,4.15
2022-07-31T20:03:48.868Z,4.65
2022-07-31T20:06:16.018Z,4.10
2022-07-31T20:08:43.318Z,4.00
2022-07-31T20:11:10.199Z,3.92
2022-07-31T20:13:40.486Z,4.22
2022-07-31T20:16:07.431Z,4.22
2022-07-31T20:18:34.647Z,5.75
2022-07-31T20:21:08.339Z,4.38
2022-07-31T20:23:38.548Z,4.25
2022-07-31T20:26:11.415Z,3.88
2022-07-31T20:28:42.459Z,4.13
2022-07-31T20:31:16.076Z,3.90
2022-07-31T20:34:06.127Z,4.05
2022-07-31T20:36:33.006Z,3.92
2022-07-31T20:38:59.824Z,3.80
2022-07-31T20:41:29.237Z,5.57
2022-07-31T20:44:01.135Z,3.92
2022-07-31T20:46:27.861Z,3.50
2022-07-31T20:48:57.173Z,3.90
2022-07-31T20:51:24.424Z,3.80
2022-07-31T20:53:53.193Z,3.45
2022-07-31T20:56:20.767Z,3.58
2022-07-31T20:58:51.737Z,3.63
2022-07-31T21:01:21.291Z,4.28
2022-07-31T21:03:49.740Z,3.85
2022-07-31T21:06:16.836Z,3.55
2022-07-31T21:08:43.686Z,3.55
2022-07-31T21:11:10.516Z,4.28
2022-07-31T21:13:38.079Z,3.78
2022-07-31T21:16:05.506Z,3.75
2022-07-31T21:18:34.659Z,3.97
2022-07-31T21:21:02.250Z,4.63
2022-07-31T21:23:29.209Z,5.68
2022-07-31T21:26:01.392Z,3.20
2022-07-31T21:28:28.657Z,3.92
2022-07-31T21:30:56.073Z,4.25
2022-07-31T21:33:25.670Z,3.72
2022-07-31T21:35:54.124Z,4.13
2022-07-31T21:38:22.197Z,4.32
2022-07-31T21:40:53.823Z,4.32
2022-07-31T21:43:22.729Z,6.03
2022-07-31T21:45:55.092Z,4.25
2022-07-31T21:48:26.877Z,4.72
2022-07-31T21:50:55.294Z,4.18
2022-07-31T21:53:23.572Z,4.15
2022-07-31T21:55:53.482Z,4.78
2022-07-31T21:58:20.488Z,4.95
2022-07-31T22:00:47.608Z,4.53
2022-07-31T22:03:14.467Z,4.18
2022-07-31T22:06:00.143Z,4.53
2022-07-31T22:08:26.859Z,4.13
2022-07-31T22:10:53.881Z,3.70
2022-07-31T22:13:39.740Z,3.78
2022-07-31T22:16:06.997Z,3.30
2022-07-31T22:18:35.811Z,3.28
2022-07-31T22:21:07.647Z,2.60
2022-07-31T22:23:36.138Z,2.60
2022-07-31T22:26:04.310Z,2.65
2022-07-31T22:28:31.948Z,3.30
2022-07-31T22:31:02.058Z,2.20
2022-07-31T22:33:28.909Z,2.00
2022-07-31T22:36:00.707Z,1.98
2022-07-31T22:38:30.269Z,1.88
2022-07-31T22:40:59.877Z,1.70
2022-07-31T22:44:11.138Z,1.83
2022-07-31T22:46:15.183Z,2.10
2022-07-31T22:48:45.033Z,2.08
2022-07-31T22:51:14.649Z,2.10
2022-07-31T22:53:43.879Z,1.70
2022-07-31T22:56:10.939Z,1.75
2022-07-31T22:58:37.799Z,1.92
2022-07-31T23:01:04.953Z,1.83
2022-07-31T23:03:31.710Z,1.98
2022-07-31T23:06:13.058Z,1.35
2022-07-31T23:08:49.481Z,1.42
2022-07-31T23:11:20.604Z,1.70
2022-07-31T23:13:47.451Z,1.95
2022-07-31T23:16:14.306Z,1.58
2022-07-31T23:18:41.037Z,1.70
2022-07-31T23:21:08.927Z,1.50
2022-07-31T23:23:38.372Z,1.80
2022-07-31T23:26:05.335Z,1.58
2022-07-31T23:28:33.725Z,1.77
2022-07-31T23:31:00.525Z,1.60
2022-07-31T23:33:27.686Z,1.67
2022-07-31T23:35:54.539Z,1.83
2022-07-31T23:38:21.874Z,1.80
2022-07-31T23:40:48.641Z,1.88
2022-07-31T23:43:20.623Z,1.88
2022-07-31T23:45:47.898Z,2.30
2022-07-31T23:48:15.610Z,2.35
2022-07-31T23:50:44.515Z,1.83
2022-07-31T23:53:11.465Z,1.85
2022-07-31T23:55:42.548Z,1.67
2022-07-31T23:58:10.410Z,2.30
